Time,TemperatureF,DewpointF,PressureIn,WindDirection,WindDirectionDegrees,WindSpeedMPH,WindSpeedGustMPH,Humidity,HourlyPrecipIn,Conditions,Clouds,dailyrainin,SoftwareType,DateUTC
2013-03-22 00:03:00,35.0,18.0,30.06,SSE,148,0.0,0.0,50,0.00,,,0.01,,2013-03-22 04:03:00,
2013-03-22 00:12:00,35.0,18.0,30.06,SSE,148,0.0,0.0,50,0.00,,,0.01,,2013-03-22 04:12:00,
2013-03-22 00:23:00,34.0,18.0,30.06,NNW,345,2.0,5.0,51,0.00,,,0.00,,2013-03-22 04:23:00,
2013-03-22 00:32:00,34.0,18.0,30.07,NW,309,0.0,0.0,51,0.00,,,0.00,,2013-03-22 04:32:00,
2013-03-22 00:43:00,34.0,18.0,30.07,NW,309,0.0,0.0,51,0.00,,,0.00,,2013-03-22 04:43:00,
2013-03-22 00:52:00,35.0,18.0,30.08,NW,314,0.0,0.0,50,0.00,,,0.00,,2013-03-22 04:52:00,
2013-03-22 01:02:00,35.0,17.0,30.08,NNW,347,3.0,6.0,47,0.00,,,0.00,,2013-03-22 05:02:00,
2013-03-22 01:12:00,35.0,17.0,30.08,NNW,347,3.0,6.0,47,0.00,,,0.00,,2013-03-22 05:12:00,
2013-03-22 01:22:00,34.0,17.0,30.08,SW,217,3.0,6.0,49,0.00,,,0.00,,2013-03-22 05:22:00,
2013-03-22 01:32:00,35.0,18.0,30.08,North,11,3.0,6.0,49,0.00,,,0.00,,2013-03-22 05:32:00,
2013-03-22 01:42:00,35.0,18.0,30.08,North,11,3.0,6.0,49,0.00,,,0.00,,2013-03-22 05:42:00,
2013-03-22 01:52:00,34.0,17.0,30.08,SW,214,2.0,4.0,49,0.00,,,0.00,,2013-03-22 05:52:00,
2013-03-22 02:02:00,34.0,18.0,30.08,SW,226,3.0,6.0,51,0.00,,,0.00,,2013-03-22 06:02:00,
2013-03-22 02:13:00,34.0,18.0,30.08,SW,226,3.0,6.0,51,0.00,,,0.00,,2013-03-22 06:13:00,
2013-03-22 02:22:00,34.0,17.0,30.08,WNW,291,2.0,3.0,49,0.00,,,0.00,,2013-03-22 06:22:00,
2013-03-22 02:32:00,34.0,17.0,30.08,SE,125,0.0,0.0,49,0.00,,,0.00,,2013-03-22 06:32:00,
2013-03-22 02:42:00,34.0,17.0,30.08,SE,125,0.0,0.0,49,0.00,,,0.00,,2013-03-22 06:42:00,
2013-03-22 02:52:00,34.0,17.0,30.08,NW,307,3.0,6.0,49,0.00,,,0.00,,2013-03-22 06:52:00,
2013-03-22 03:03:00,34.0,16.0,30.09,WSW,250,8.0,12.0,48,0.00,,,0.00,,2013-03-22 07:03:00,
2013-03-22 03:12:00,34.0,16.0,30.09,WSW,250,8.0,12.0,48,0.00,,,0.00,,2013-03-22 07:12:00,
2013-03-22 03:22:00,33.0,17.0,30.09,SSW,212,1.0,3.0,52,0.00,,,0.00,,2013-03-22 07:22:00,
2013-03-22 03:32:00,32.0,17.0,30.09,North,352,5.0,6.0,54,0.00,,,0.00,,2013-03-22 07:32:00,
2013-03-22 03:42:00,32.0,17.0,30.09,North,352,5.0,6.0,54,0.00,,,0.00,,2013-03-22 07:42:00,
2013-03-22 03:52:00,33.0,17.0,30.09,NW,321,2.0,3.0,51,0.00,,,0.00,,2013-03-22 07:52:00,
2013-03-22 04:03:00,33.0,17.0,30.10,WNW,294,0.0,0.0,52,0.00,,,0.00,,2013-03-22 08:03:00,
2013-03-22 04:13:00,33.0,17.0,30.10,WNW,294,0.0,0.0,52,0.00,,,0.00,,2013-03-22 08:13:00,
2013-03-22 04:22:00,33.0,17.0,30.10,West,266,5.0,6.0,52,0.00,,,0.00,,2013-03-22 08:22:00,
2013-03-22 04:32:00,33.0,18.0,30.11,WSW,238,6.0,7.0,53,0.00,,,0.00,,2013-03-22 08:32:00,
2013-03-22 04:42:00,33.0,18.0,30.11,WSW,238,6.0,7.0,53,0.00,,,0.00,,2013-03-22 08:42:00,
2013-03-22 04:52:00,33.0,19.0,30.11,WSW,238,1.0,5.0,55,0.00,,,0.00,,2013-03-22 08:52:00,
2013-03-22 05:02:00,32.0,17.0,30.11,SE,132,0.0,0.0,54,0.00,,,0.00,,2013-03-22 09:02:00,
2013-03-22 05:12:00,32.0,17.0,30.11,SE,132,0.0,0.0,54,0.00,,,0.00,,2013-03-22 09:12:00,
2013-03-22 05:22:00,32.0,17.0,30.11,SW,214,2.0,3.0,54,0.00,,,0.00,,2013-03-22 09:22:00,
2013-03-22 05:32:00,32.0,17.0,30.11,South,186,2.0,3.0,54,0.00,,,0.00,,2013-03-22 09:32:00,
2013-03-22 05:42:00,32.0,17.0,30.11,South,186,2.0,3.0,54,0.00,,,0.00,,2013-03-22 09:42:00,
2013-03-22 05:53:00,32.0,17.0,30.12,SW,224,1.0,2.0,53,0.00,,,0.00,,2013-03-22 09:53:00,
2013-03-22 06:04:00,32.0,18.0,30.12,WSW,255,3.0,5.0,55,0.00,,,0.00,,2013-03-22 10:04:00,
2013-03-22 06:12:00,32.0,18.0,30.12,WSW,255,3.0,5.0,55,0.00,,,0.00,,2013-03-22 10:12:00,
2013-03-22 06:22:00,32.0,17.0,30.13,SW,214,2.0,3.0,54,0.00,,,0.00,,2013-03-22 10:22:00,
2013-03-22 06:33:00,31.0,18.0,30.14,South,190,2.0,2.0,57,0.00,,,0.00,,2013-03-22 10:33:00,
2013-03-22 06:42:00,31.0,18.0,30.14,South,190,2.0,2.0,57,0.00,,,0.00,,2013-03-22 10:42:00,
2013-03-22 06:52:00,31.0,18.0,30.15,South,191,0.0,0.0,57,0.00,,,0.00,,2013-03-22 10:52:00,
2013-03-22 07:03:00,31.0,17.0,30.15,SSW,193,0.0,0.0,56,0.00,,,0.00,,2013-03-22 11:03:00,
2013-03-22 07:12:00,31.0,17.0,30.15,SSW,193,0.0,0.0,56,0.00,,,0.00,,2013-03-22 11:12:00,
2013-03-22 07:22:00,31.0,18.0,30.15,SSW,193,0.0,0.0,59,0.00,,,0.00,,2013-03-22 11:22:00,
2013-03-22 07:33:00,29.0,17.0,30.16,SSW,193,0.0,0.0,61,0.00,,,0.00,,2013-03-22 11:33:00,
2013-03-22 07:42:00,29.0,17.0,30.16,SSW,193,0.0,0.0,61,0.00,,,0.00,,2013-03-22 11:42:00,
2013-03-22 07:52:00,29.0,18.0,30.16,SSW,193,0.0,0.0,64,0.00,,,0.00,,2013-03-22 11:52:00,
2013-03-22 08:02:00,29.0,18.0,30.17,SSW,193,0.0,0.0,64,0.00,,,0.00,,2013-03-22 12:02:00,
2013-03-22 08:12:00,29.0,19.0,30.18,SSW,193,0.0,0.0,65,0.00,,,0.00,,2013-03-22 12:12:00,
2013-03-22 08:22:00,29.0,19.0,30.18,SSW,193,0.0,0.0,65,0.00,,,0.00,,2013-03-22 12:22:00,
2013-03-22 08:32:00,29.0,20.0,30.18,SSW,193,0.0,0.0,68,0.00,,,0.00,,2013-03-22 12:32:00,
2013-03-22 08:42:00,29.0,20.0,30.18,SSW,193,0.0,0.0,68,0.00,,,0.00,,2013-03-22 12:42:00,
2013-03-22 08:52:00,30.0,20.0,30.18,SSW,193,0.0,0.0,65,0.00,,,0.00,,2013-03-22 12:52:00,
2013-03-22 09:02:00,31.0,20.0,30.18,SSW,193,0.0,0.0,64,0.00,,,0.00,,2013-03-22 13:02:00,
2013-03-22 09:12:00,31.0,20.0,30.18,SSW,193,0.0,0.0,64,0.00,,,0.00,,2013-03-22 13:12:00,
2013-03-22 09:22:00,33.0,20.0,30.18,South,176,2.0,3.0,59,0.00,,,0.00,,2013-03-22 13:22:00,
2013-03-22 09:32:00,33.0,19.0,30.18,SSE,148,1.0,3.0,57,0.00,,,0.00,,2013-03-22 13:32:00,
2013-03-22 09:42:00,33.0,19.0,30.18,SSE,148,1.0,3.0,57,0.00,,,0.00,,2013-03-22 13:42:00,
2013-03-22 09:52:00,35.0,20.0,30.18,South,190,4.0,6.0,53,0.00,,,0.00,,2013-03-22 13:52:00,
2013-03-22 10:02:00,35.0,19.0,30.18,SSE,149,2.0,4.0,52,0.00,,,0.00,,2013-03-22 14:02:00,
2013-03-22 10:12:00,35.0,19.0,30.18,SSE,149,2.0,4.0,52,0.00,,,0.00,,2013-03-22 14:12:00,
2013-03-22 10:22:00,37.0,20.0,30.17,SSW,211,3.0,4.0,50,0.00,,,0.00,,2013-03-22 14:22:00,
2013-03-22 10:32:00,38.0,21.0,30.18,East,84,2.0,4.0,49,0.00,,,0.00,,2013-03-22 14:32:00,
2013-03-22 10:42:00,38.0,21.0,30.18,East,84,2.0,4.0,49,0.00,,,0.00,,2013-03-22 14:42:00,
2013-03-22 10:52:00,39.0,19.0,30.18,SW,225,2.0,3.0,45,0.00,,,0.00,,2013-03-22 14:52:00,
2013-03-22 11:03:00,39.0,20.0,30.18,South,169,4.0,6.0,46,0.00,,,0.00,,2013-03-22 15:03:00,
2013-03-22 11:12:00,39.0,20.0,30.18,South,169,4.0,6.0,46,0.00,,,0.00,,2013-03-22 15:12:00,
2013-03-22 11:22:00,38.0,20.0,30.18,South,173,4.0,6.0,48,0.00,,,0.00,,2013-03-22 15:22:00,
2013-03-22 11:33:00,39.0,20.0,30.17,SSW,201,7.0,9.0,46,0.00,,,0.00,,2013-03-22 15:33:00,
2013-03-22 11:42:00,39.0,20.0,30.17,SSW,201,7.0,9.0,46,0.00,,,0.00,,2013-03-22 15:42:00,
2013-03-22 11:52:00,40.0,21.0,30.16,South,177,3.0,5.0,46,0.00,,,0.00,,2013-03-22 15:52:00,
2013-03-22 12:03:00,40.0,20.0,30.16,West,263,7.0,11.0,45,0.00,,,0.00,,2013-03-22 16:03:00,
2013-03-22 12:13:00,41.0,21.0,30.16,SW,225,6.0,8.0,44,0.00,,,0.00,,2013-03-22 16:13:00,
2013-03-22 12:23:00,41.0,21.0,30.16,SW,225,6.0,8.0,44,0.00,,,0.00,,2013-03-22 16:23:00,
2013-03-22 12:32:00,41.0,21.0,30.16,South,176,7.0,10.0,44,0.00,,,0.00,,2013-03-22 16:32:00,
2013-03-22 12:42:00,42.0,21.0,30.15,SSW,207,6.0,10.0,42,0.00,,,0.00,,2013-03-22 16:42:00,
2013-03-22 12:52:00,42.0,21.0,30.15,SSW,207,6.0,10.0,42,0.00,,,0.00,,2013-03-22 16:52:00,
2013-03-22 13:03:00,42.0,21.0,30.14,SSW,200,6.0,7.0,43,0.00,,,0.00,,2013-03-22 17:03:00,
2013-03-22 13:12:00,42.0,21.0,30.14,WSW,257,5.0,8.0,43,0.00,,,0.00,,2013-03-22 17:12:00,
2013-03-22 13:23:00,42.0,21.0,30.14,WSW,257,5.0,8.0,43,0.00,,,0.00,,2013-03-22 17:23:00,
2013-03-22 13:32:00,46.0,24.0,30.13,SSE,162,4.0,8.0,42,0.00,,,0.00,,2013-03-22 17:32:00,
2013-03-22 13:42:00,46.0,24.0,30.13,SSE,162,4.0,8.0,42,0.00,,,0.00,,2013-03-22 17:42:00,
2013-03-22 13:52:00,45.0,22.0,30.13,SSW,207,6.0,8.0,39,0.00,,,0.00,,2013-03-22 17:52:00,
2013-03-22 14:02:00,47.0,23.0,30.12,SW,231,4.0,6.0,39,0.00,,,0.00,,2013-03-22 18:02:00,
2013-03-22 14:12:00,47.0,23.0,30.12,SW,231,4.0,6.0,39,0.00,,,0.00,,2013-03-22 18:12:00,
2013-03-22 14:22:00,47.0,22.0,30.12,SSE,153,9.0,14.0,37,0.00,,,0.00,,2013-03-22 18:22:00,
2013-03-22 14:33:00,49.0,25.0,30.12,NW,311,6.0,11.0,38,0.00,,,0.00,,2013-03-22 18:33:00,
2013-03-22 14:42:00,49.0,25.0,30.12,NW,311,6.0,11.0,38,0.00,,,0.00,,2013-03-22 18:42:00,
2013-03-22 14:52:00,49.0,25.0,30.11,South,177,4.0,7.0,38,0.00,,,0.00,,2013-03-22 18:52:00,
2013-03-22 15:02:00,52.0,25.0,30.10,SW,215,2.0,6.0,34,0.00,,,0.00,,2013-03-22 19:02:00,
2013-03-22 15:12:00,51.0,23.0,30.09,WNW,293,5.0,7.0,33,0.00,,,0.00,,2013-03-22 19:12:00,
2013-03-22 15:22:00,51.0,23.0,30.09,WNW,293,5.0,7.0,33,0.00,,,0.00,,2013-03-22 19:22:00,
2013-03-22 15:32:00,53.0,23.0,30.09,West,280,6.0,9.0,31,0.00,,,0.00,,2013-03-22 19:32:00,
2013-03-22 15:42:00,53.0,23.0,30.09,West,280,6.0,9.0,31,0.00,,,0.00,,2013-03-22 19:42:00,
2013-03-22 15:52:00,53.0,24.0,30.09,SW,232,6.0,9.0,32,0.00,,,0.00,,2013-03-22 19:52:00,
2013-03-22 16:02:00,53.0,25.0,30.09,West,269,6.0,9.0,33,0.00,,,0.00,,2013-03-22 20:02:00,
2013-03-22 16:12:00,53.0,25.0,30.09,West,269,6.0,9.0,33,0.00,,,0.00,,2013-03-22 20:12:00,
2013-03-22 16:22:00,51.0,25.0,30.09,West,270,2.0,6.0,36,0.00,,,0.00,,2013-03-22 20:22:00,
2013-03-22 16:32:00,50.0,25.0,30.09,WNW,298,4.0,6.0,37,0.00,,,0.00,,2013-03-22 20:32:00,
2013-03-22 16:43:00,50.0,25.0,30.09,WNW,298,4.0,6.0,37,0.00,,,0.00,,2013-03-22 20:43:00,
2013-03-22 16:52:00,51.0,26.0,30.08,ESE,104,3.0,4.0,38,0.00,,,0.00,,2013-03-22 20:52:00,
2013-03-22 17:03:00,51.0,26.0,30.08,West,278,3.0,7.0,37,0.00,,,0.00,,2013-03-22 21:03:00,
2013-03-22 17:12:00,50.0,26.0,30.08,SSE,165,4.0,7.0,39,0.00,,,0.00,,2013-03-22 21:12:00,
2013-03-22 17:22:00,50.0,26.0,30.08,SSE,165,4.0,7.0,39,0.00,,,0.00,,2013-03-22 21:22:00,
2013-03-22 17:33:00,51.0,26.0,30.08,SSW,210,5.0,7.0,37,0.00,,,0.00,,2013-03-22 21:33:00,
2013-03-22 17:43:00,51.0,26.0,30.08,SSW,210,5.0,7.0,37,0.00,,,0.00,,2013-03-22 21:43:00,
2013-03-22 17:53:00,51.0,26.0,30.07,East,100,4.0,5.0,38,0.00,,,0.00,,2013-03-22 21:53:00,
2013-03-22 18:03:00,51.0,26.0,30.07,SSW,195,4.0,7.0,38,0.00,,,0.00,,2013-03-22 22:03:00,
2013-03-22 18:12:00,51.0,26.0,30.07,SSW,195,4.0,7.0,38,0.00,,,0.00,,2013-03-22 22:12:00,
2013-03-22 18:23:00,50.0,26.0,30.08,WNW,288,3.0,7.0,39,0.00,,,0.00,,2013-03-22 22:23:00,
2013-03-22 18:32:00,50.0,27.0,30.08,West,266,5.0,8.0,40,0.00,,,0.00,,2013-03-22 22:32:00,
2013-03-22 18:42:00,50.0,27.0,30.08,West,266,5.0,8.0,40,0.00,,,0.00,,2013-03-22 22:42:00,
2013-03-22 18:53:00,50.0,27.0,30.08,SW,229,4.0,6.0,40,0.00,,,0.00,,2013-03-22 22:53:00,
2013-03-22 19:02:00,49.0,27.0,30.09,West,273,1.0,2.0,42,0.00,,,0.00,,2013-03-22 23:02:00,
2013-03-22 19:12:00,49.0,27.0,30.09,West,273,1.0,2.0,42,0.00,,,0.00,,2013-03-22 23:12:00,
2013-03-22 19:22:00,49.0,27.0,30.09,South,191,3.0,4.0,42,0.00,,,0.00,,2013-03-22 23:22:00,
2013-03-22 19:32:00,48.0,27.0,30.09,SW,221,1.0,2.0,43,0.00,,,0.00,,2013-03-22 23:32:00,
2013-03-22 19:42:00,48.0,27.0,30.09,SW,221,1.0,2.0,43,0.00,,,0.00,,2013-03-22 23:42:00,
2013-03-22 19:52:00,48.0,27.0,30.10,West,277,3.0,4.0,44,0.00,,,0.00,,2013-03-22 23:52:00,
2013-03-22 20:02:00,47.0,27.0,30.11,NW,307,2.0,3.0,45,0.00,,,0.00,,2013-03-23 00:02:00,
2013-03-22 20:12:00,47.0,27.0,30.11,NW,307,2.0,3.0,45,0.00,,,0.00,,2013-03-23 00:12:00,
2013-03-22 20:23:00,47.0,27.0,30.11,WSW,240,3.0,5.0,45,0.00,,,0.00,,2013-03-23 00:23:00,
2013-03-22 20:33:00,47.0,27.0,30.11,SSW,204,1.0,2.0,46,0.00,,,0.00,,2013-03-23 00:33:00,
2013-03-22 20:42:00,46.0,27.0,30.11,NNW,340,2.0,4.0,47,0.00,,,0.00,,2013-03-23 00:42:00,
2013-03-22 20:52:00,46.0,27.0,30.11,NNW,340,2.0,4.0,47,0.00,,,0.00,,2013-03-23 00:52:00,
2013-03-22 21:03:00,46.0,27.0,30.12,West,277,2.0,4.0,48,0.00,,,0.00,,2013-03-23 01:03:00,
2013-03-22 21:12:00,46.0,27.0,30.12,West,277,2.0,4.0,48,0.00,,,0.00,,2013-03-23 01:12:00,
2013-03-22 21:22:00,46.0,27.0,30.12,SSW,193,0.0,0.0,48,0.00,,,0.00,,2013-03-23 01:22:00,
2013-03-22 21:32:00,46.0,28.0,30.12,SSE,149,0.0,0.0,50,0.00,,,0.00,,2013-03-23 01:32:00,
2013-03-22 21:42:00,46.0,28.0,30.12,SSE,149,0.0,0.0,50,0.00,,,0.00,,2013-03-23 01:42:00,
2013-03-22 21:52:00,47.0,28.0,30.13,West,280,3.0,7.0,48,0.00,,,0.00,,2013-03-23 01:52:00,
2013-03-22 22:02:00,47.0,29.0,30.13,NE,42,3.0,4.0,49,0.00,,,0.00,,2013-03-23 02:02:00,
2013-03-22 22:12:00,47.0,29.0,30.13,NE,42,3.0,4.0,49,0.00,,,0.00,,2013-03-23 02:12:00,
2013-03-22 22:22:00,47.0,28.0,30.13,ENE,69,1.0,2.0,48,0.00,,,0.00,,2013-03-23 02:22:00,
2013-03-22 22:32:00,47.0,28.0,30.13,West,273,3.0,5.0,48,0.00,,,0.00,,2013-03-23 02:32:00,
2013-03-22 22:42:00,47.0,28.0,30.13,West,273,3.0,5.0,48,0.00,,,0.00,,2013-03-23 02:42:00,
2013-03-22 22:52:00,47.0,29.0,30.14,South,188,0.0,3.0,49,0.00,,,0.00,,2013-03-23 02:52:00,
2013-03-22 23:02:00,47.0,28.0,30.13,NNW,340,1.0,3.0,48,0.00,,,0.00,,2013-03-23 03:02:00,
2013-03-22 23:12:00,47.0,28.0,30.13,NNW,340,1.0,3.0,48,0.00,,,0.00,,2013-03-23 03:12:00,
2013-03-22 23:22:00,47.0,29.0,30.13,SSW,194,0.0,2.0,50,0.00,,,0.00,,2013-03-23 03:22:00,
2013-03-22 23:33:00,47.0,30.0,30.13,SW,217,3.0,4.0,51,0.00,,,0.00,,2013-03-23 03:33:00,
2013-03-22 23:43:00,47.0,30.0,30.13,SW,217,3.0,4.0,51,0.00,,,0.00,,2013-03-23 03:43:00,
2013-03-22 23:53:00,47.0,29.0,30.13,SW,228,2.0,5.0,50,0.00,,,0.00,,2013-03-23 03:53:00,